createdAt,value
2023-04-01T00:00:33.036Z,15.10
2023-04-01T00:03:01.415Z,16.37
2023-04-01T00:05:29.285Z,16.03
2023-04-01T00:07:57.044Z,10.60
2023-04-01T00:10:24.770Z,14.90
2023-04-01T00:12:54.308Z,16.67
2023-04-01T00:15:22.265Z,15.07
2023-04-01T00:17:50.600Z,20.53
2023-04-01T00:20:18.476Z,17.20
2023-04-01T00:22:46.301Z,16.77
2023-04-01T00:25:14.161Z,15.80
2023-04-01T00:27:41.979Z,17.40
2023-04-01T00:30:12.648Z,9.70
2023-04-01T00:32:40.814Z,16.97
2023-04-01T00:35:09.426Z,19.47
2023-04-01T00:37:38.734Z,14.23
2023-04-01T00:40:09.031Z,12.30
2023-04-01T00:42:36.863Z,10.07
2023-04-01T00:45:29.887Z,7.87
2023-04-01T00:48:01.011Z,10.47
2023-04-01T00:50:31.152Z,13.20
2023-04-01T00:53:00.529Z,10.20
2023-04-01T00:55:31.314Z,16.17
2023-04-01T00:58:01.408Z,7.87
2023-04-01T01:00:30.556Z,13.33
2023-04-01T01:02:58.498Z,15.30
2023-04-01T01:05:48.828Z,9.73
2023-04-01T01:08:28.234Z,8.97
2023-04-01T01:10:55.985Z,11.67
2023-04-01T01:13:29.941Z,10.50
2023-04-01T01:16:04.272Z,15.47
2023-04-01T01:18:38.721Z,16.67
2023-04-01T01:21:35.541Z,13.33
2023-04-01T01:24:21.933Z,13.13
2023-04-01T01:26:56.867Z,11.97
2023-04-01T01:29:57.999Z,11.30
2023-04-01T01:33:07.236Z,7.67
2023-04-01T01:35:39.404Z,12.63
2023-04-01T01:38:10.608Z,11.83
2023-04-01T01:40:41.463Z,8.07
2023-04-01T01:43:13.592Z,6.27
2023-04-01T01:45:48.174Z,6.73
2023-04-01T01:48:18.621Z,8.43
2023-04-01T01:50:50.487Z,2.33
2023-04-01T01:53:18.439Z,6.90
2023-04-01T01:55:47.645Z,5.77
2023-04-01T01:58:20.077Z,3.40
2023-04-01T02:00:52.808Z,7.57
2023-04-01T02:03:23.221Z,7.37
2023-04-01T02:05:54.906Z,4.03
2023-04-01T02:08:25.858Z,7.63
2023-04-01T02:10:58.552Z,3.70
2023-04-01T02:13:33.195Z,6.53
2023-04-01T02:16:05.864Z,6.67
2023-04-01T02:18:38.327Z,7.27
2023-04-01T02:21:09.322Z,3.50
2023-04-01T02:23:38.784Z,4.23
2023-04-01T02:26:08.827Z,4.23
2023-04-01T02:28:40.542Z,2.83
2023-04-01T02:31:10.817Z,2.37
2023-04-01T02:33:41.116Z,2.70
2023-04-01T02:36:14.276Z,2.63
2023-04-01T02:38:42.774Z,2.33
2023-04-01T02:41:10.782Z,1.60
2023-04-01T02:43:38.653Z,2.90
2023-04-01T02:46:06.520Z,3.33
2023-04-01T02:48:34.291Z,1.67
2023-04-01T02:51:02.131Z,2.60
2023-04-01T02:53:31.287Z,6.70
2023-04-01T02:55:59.063Z,3.83
2023-04-01T02:58:26.881Z,5.63
2023-04-01T03:00:54.723Z,7.33
2023-04-01T03:03:23.125Z,6.40
2023-04-01T03:05:51.049Z,8.50
2023-04-01T03:08:18.913Z,11.50
2023-04-01T03:10:48.022Z,10.93
2023-04-01T03:13:15.881Z,13.40
2023-04-01T03:15:43.753Z,15.67
2023-04-01T03:18:11.558Z,12.63
2023-04-01T03:20:39.272Z,8.47
2023-04-01T03:23:07.073Z,18.73
2023-04-01T03:25:35.093Z,15.53
2023-04-01T03:28:05.140Z,15.23
2023-04-01T03:30:33.041Z,16.23
2023-04-01T03:33:01.572Z,18.83
2023-04-01T03:35:30.104Z,15.53
2023-04-01T03:37:58.056Z,14.67
2023-04-01T03:40:27.149Z,12.67
2023-04-01T03:42:54.998Z,17.73
2023-04-01T03:45:24.218Z,15.07
2023-04-01T03:47:52.202Z,17.07
2023-04-01T03:50:20.716Z,12.13
2023-04-01T03:52:48.533Z,16.50
2023-04-01T03:55:16.511Z,9.50
2023-04-01T03:57:44.399Z,16.00
2023-04-01T04:00:13.462Z,15.43
2023-04-01T04:02:42.915Z,15.00
2023-04-01T04:05:10.779Z,14.13
2023-04-01T04:07:38.611Z,14.70
2023-04-01T04:10:07.567Z,13.00
2023-04-01T04:12:35.336Z,17.03
2023-04-01T04:15:03.403Z,17.60
2023-04-01T04:17:31.209Z,14.93
2023-04-01T04:20:00.407Z,9.47
2023-04-01T04:22:28.243Z,9.27
2023-04-01T04:24:56.049Z,7.67
2023-04-01T04:27:23.977Z,7.73
2023-04-01T04:29:51.773Z,9.43
2023-04-01T04:32:19.516Z,7.77
2023-04-01T04:34:47.384Z,10.80
2023-04-01T04:37:16.522Z,9.40
2023-04-01T04:39:44.334Z,9.63
2023-04-01T04:42:12.129Z,10.07
2023-04-01T04:44:40.937Z,12.50
2023-04-01T04:47:08.703Z,8.80
2023-04-01T04:49:36.513Z,10.10
2023-04-01T04:52:04.458Z,7.97
2023-04-01T04:54:33.532Z,13.23
2023-04-01T04:57:01.327Z,8.73
2023-04-01T04:59:29.085Z,11.93
2023-04-01T05:01:56.979Z,11.73
2023-04-01T05:04:24.794Z,9.80
2023-04-01T05:06:52.821Z,13.20
2023-04-01T05:09:20.669Z,13.07
2023-04-01T05:11:49.818Z,8.47
2023-04-01T05:14:19.840Z,9.70
2023-04-01T05:16:47.770Z,11.47
2023-04-01T05:19:15.552Z,13.80
2023-04-01T05:21:43.272Z,10.60
2023-04-01T05:24:11.372Z,10.77
2023-04-01T05:26:39.116Z,11.03
2023-04-01T05:29:08.311Z,11.07
2023-04-01T05:31:36.021Z,11.37
2023-04-01T05:34:03.809Z,11.93
2023-04-01T05:36:31.622Z,11.13
2023-04-01T05:38:59.509Z,7.33
2023-04-01T05:41:27.549Z,9.33
2023-04-01T05:43:56.071Z,12.33
2023-04-01T05:46:27.814Z,9.43
2023-04-01T05:48:55.706Z,9.70
2023-04-01T05:51:23.577Z,9.40
2023-04-01T05:53:51.754Z,11.03
2023-04-01T05:56:19.506Z,12.37
2023-04-01T05:58:52.676Z,11.80
2023-04-01T06:01:21.018Z,9.63
2023-04-01T06:03:50.410Z,9.50
2023-04-01T06:06:25.256Z,13.30
2023-04-01T06:08:54.037Z,13.00
2023-04-01T06:11:36.987Z,12.73
2023-04-01T06:14:19.332Z,9.80
2023-04-01T06:16:59.726Z,12.33
2023-04-01T06:19:42.082Z,11.67
2023-04-01T06:22:24.535Z,13.53
2023-04-01T06:25:08.270Z,14.83
2023-04-01T06:27:51.270Z,13.87
2023-04-01T06:30:34.625Z,10.70
2023-04-01T06:33:22.200Z,15.80
2023-04-01T06:36:11.102Z,18.27
2023-04-01T06:39:00.976Z,19.77
2023-04-01T06:41:57.072Z,15.03
2023-04-01T06:44:35.344Z,13.60
2023-04-01T06:47:12.357Z,16.23
2023-04-01T06:49:51.617Z,14.47
2023-04-01T06:52:27.275Z,14.13
2023-04-01T06:55:02.269Z,14.00
2023-04-01T06:57:35.733Z,11.97
2023-04-01T07:00:14.346Z,10.57
2023-04-01T07:02:47.668Z,5.03
2023-04-01T07:05:17.075Z,5.13
2023-04-01T07:07:50.469Z,5.73
2023-04-01T07:10:23.851Z,5.87
2023-04-01T07:12:57.219Z,7.07
2023-04-01T07:15:30.431Z,5.00
2023-04-01T07:18:05.121Z,8.60
2023-04-01T07:20:34.325Z,4.77
2023-04-01T07:23:06.551Z,3.57
2023-04-01T07:25:38.928Z,2.70
2023-04-01T07:28:12.997Z,5.30
2023-04-01T07:30:49.574Z,2.73
2023-04-01T07:33:21.760Z,3.83
2023-04-01T07:35:58.261Z,3.17
2023-04-01T07:38:38.120Z,2.27
2023-04-01T07:41:16.722Z,1.10
2023-04-01T07:43:58.544Z,2.57
2023-04-01T07:46:41.944Z,2.47
2023-04-01T07:49:16.212Z,4.03
2023-04-01T07:51:51.268Z,3.60
2023-04-01T07:54:26.646Z,3.87
2023-04-01T07:56:59.959Z,4.13
2023-04-01T07:59:35.872Z,4.93
2023-04-01T08:02:12.731Z,3.93
2023-04-01T08:04:54.194Z,6.10
2023-04-01T08:07:27.126Z,5.00
2023-04-01T08:10:04.571Z,3.77
2023-04-01T08:12:44.460Z,6.47
2023-04-01T08:15:23.422Z,6.30
2023-04-01T08:18:05.787Z,6.47
2023-04-01T08:20:39.306Z,6.07
2023-04-01T08:23:13.695Z,8.50
2023-04-01T08:25:48.309Z,9.30
2023-04-01T08:28:21.928Z,10.50
2023-04-01T08:30:54.586Z,7.53
2023-04-01T08:33:26.268Z,6.63
2023-04-01T08:35:59.970Z,8.93
2023-04-01T08:38:33.296Z,7.83
2023-04-01T08:41:28.860Z,9.00
2023-04-01T08:44:22.705Z,8.57
2023-04-01T08:47:08.828Z,11.00
2023-04-01T08:50:24.182Z,7.77
2023-04-01T08:52:59.683Z,6.77
2023-04-01T08:55:39.365Z,8.43
2023-04-01T08:58:35.924Z,6.83
2023-04-01T09:01:16.553Z,8.00
2023-04-01T09:04:00.991Z,16.33
2023-04-01T09:06:39.720Z,12.47
2023-04-01T09:09:32.978Z,11.07
2023-04-01T09:12:28.682Z,8.80
2023-04-01T09:15:38.418Z,10.77
2023-04-01T09:18:39.216Z,10.23
2023-04-01T09:21:29.152Z,8.57
2023-04-01T09:24:23.422Z,6.77
2023-04-01T09:27:04.559Z,10.30
2023-04-01T09:29:51.924Z,11.07
2023-04-01T09:32:40.435Z,9.93
2023-04-01T09:35:23.423Z,7.93
2023-04-01T09:38:00.401Z,8.77
2023-04-01T09:40:39.831Z,9.03
2023-04-01T09:43:42.110Z,8.53
2023-04-01T09:46:20.581Z,7.13
2023-04-01T09:49:26.773Z,7.73
2023-04-01T09:52:09.007Z,8.20
2023-04-01T09:54:59.436Z,8.23
2023-04-01T09:58:02.156Z,7.43
2023-04-01T10:00:41.939Z,8.37
2023-04-01T10:03:56.910Z,8.93
2023-04-01T10:07:00.759Z,6.60
2023-04-01T10:10:06.032Z,10.50
2023-04-01T10:12:54.314Z,7.30
2023-04-01T10:15:47.988Z,6.40
2023-04-01T10:18:46.608Z,9.17
2023-04-01T10:21:45.211Z,7.97
2023-04-01T10:24:37.400Z,6.97
2023-04-01T10:27:36.150Z,6.97
2023-04-01T10:30:43.825Z,9.20
2023-04-01T10:33:40.521Z,6.70
2023-04-01T10:36:32.323Z,7.17
2023-04-01T10:39:31.260Z,5.53
2023-04-01T10:42:28.717Z,7.50
2023-04-01T10:45:52.232Z,8.97
2023-04-01T10:48:37.697Z,8.30
2023-04-01T10:51:28.199Z,9.70
2023-04-01T10:54:21.206Z,8.83
2023-04-01T10:56:56.750Z,9.73
2023-04-01T11:00:09.322Z,10.90
2023-04-01T11:03:12.720Z,10.90
2023-04-01T11:06:17.659Z,8.17
2023-04-01T11:09:37.987Z,8.20
2023-04-01T11:12:45.328Z,8.90
2023-04-01T11:15:33.591Z,10.17
2023-04-01T11:18:37.453Z,8.93
2023-04-01T11:21:31.950Z,10.43
2023-04-01T11:24:20.723Z,13.80
2023-04-01T11:27:12.652Z,10.07
2023-04-01T11:30:05.226Z,10.70
2023-04-01T11:32:56.698Z,10.40
2023-04-01T11:35:50.857Z,11.07
2023-04-01T11:38:35.278Z,13.30
2023-04-01T11:41:22.879Z,10.33
2023-04-01T11:44:07.023Z,11.43
2023-04-01T11:46:43.583Z,10.43
2023-04-01T11:49:28.668Z,10.37
2023-04-01T11:52:09.834Z,9.87
2023-04-01T11:55:05.621Z,10.63
2023-04-01T11:57:53.176Z,9.83
2023-04-01T12:00:37.607Z,15.10
2023-04-01T12:03:23.540Z,11.17
2023-04-01T12:05:57.219Z,9.37
2023-04-01T12:08:38.308Z,9.33
2023-04-01T12:11:17.310Z,8.17
2023-04-01T12:13:54.842Z,7.53
2023-04-01T12:16:36.014Z,8.30
2023-04-01T12:19:11.313Z,7.67
2023-04-01T12:21:40.736Z,9.47
2023-04-01T12:24:31.136Z,7.03
2023-04-01T12:27:14.657Z,8.63
2023-04-01T12:29:59.749Z,8.97
2023-04-01T12:32:37.164Z,8.50
2023-04-01T12:35:25.795Z,7.07
2023-04-01T12:38:15.982Z,9.90
2023-04-01T12:41:16.716Z,10.00
2023-04-01T12:44:28.941Z,5.23
2023-04-01T12:47:30.086Z,8.87
2023-04-01T12:50:18.598Z,11.87
2023-04-01T12:53:04.113Z,11.97
2023-04-01T12:55:41.349Z,11.50
2023-04-01T12:58:43.536Z,8.50
2023-04-01T13:01:30.868Z,9.20
2023-04-01T13:04:23.563Z,10.17
2023-04-01T13:07:05.872Z,9.20
2023-04-01T13:09:47.140Z,6.43
2023-04-01T13:12:33.318Z,6.63
2023-04-01T13:15:18.933Z,9.00
2023-04-01T13:17:53.418Z,9.10
2023-04-01T13:20:36.530Z,5.57
2023-04-01T13:23:14.105Z,7.57
2023-04-01T13:25:52.547Z,7.77
2023-04-01T13:28:29.222Z,9.00
2023-04-01T13:31:04.188Z,8.90
2023-04-01T13:33:40.187Z,7.97
2023-04-01T13:36:21.881Z,9.30
2023-04-01T13:39:09.023Z,10.97
2023-04-01T13:41:56.431Z,9.80
2023-04-01T13:44:31.720Z,8.83
2023-04-01T13:47:13.704Z,8.87
2023-04-01T13:50:03.951Z,8.43
2023-04-01T13:52:45.811Z,5.43
2023-04-01T13:55:32.641Z,4.97
2023-04-01T13:58:18.978Z,4.33
2023-04-01T14:00:57.212Z,7.00
2023-04-01T14:04:03.592Z,5.27
2023-04-01T14:06:41.251Z,5.97
2023-04-01T14:09:52.994Z,6.93
2023-04-01T14:12:31.623Z,12.03
2023-04-01T14:15:43.754Z,6.20
2023-04-01T14:18:30.480Z,8.10
2023-04-01T14:21:15.524Z,10.83
2023-04-01T14:24:00.992Z,5.53
2023-04-01T14:26:55.918Z,5.23
2023-04-01T14:29:32.023Z,5.97
2023-04-01T14:32:12.528Z,3.53
2023-04-01T14:34:52.330Z,4.00
2023-04-01T14:37:38.834Z,7.00
2023-04-01T14:40:28.451Z,9.10
2023-04-01T14:43:20.913Z,10.10
2023-04-01T14:46:02.439Z,5.37
2023-04-01T14:48:34.265Z,8.07
2023-04-01T14:51:11.595Z,5.70
2023-04-01T14:53:46.400Z,5.73
2023-04-01T14:56:15.230Z,5.97
2023-04-01T14:58:47.570Z,7.00
2023-04-01T15:01:43.270Z,6.73
2023-04-01T15:04:36.167Z,6.83
2023-04-01T15:07:21.026Z,8.63
2023-04-01T15:09:58.199Z,12.20
2023-04-01T15:12:31.668Z,11.63
2023-04-01T15:15:14.027Z,6.20
2023-04-01T15:17:57.211Z,12.90
2023-04-01T15:20:44.016Z,14.20
2023-04-01T15:23:28.025Z,11.90
2023-04-01T15:26:21.715Z,12.50
2023-04-01T15:29:03.529Z,9.43
2023-04-01T15:31:43.326Z,7.97
2023-04-01T15:34:34.207Z,14.20
2023-04-01T15:37:10.455Z,8.13
2023-04-01T15:39:52.929Z,11.30
2023-04-01T15:42:36.876Z,9.50
2023-04-01T15:45:16.246Z,9.97
2023-04-01T15:47:55.955Z,10.83
2023-04-01T15:50:37.646Z,8.07
2023-04-01T15:53:32.902Z,11.53
2023-04-01T15:56:16.343Z,9.30
2023-04-01T15:58:59.829Z,7.70
2023-04-01T16:01:37.298Z,7.43
2023-04-01T16:04:23.462Z,6.43
2023-04-01T16:07:05.584Z,11.20
2023-04-01T16:09:58.713Z,10.10
2023-04-01T16:12:43.702Z,11.20
2023-04-01T16:15:23.765Z,6.67
2023-04-01T16:18:07.243Z,12.83
2023-04-01T16:20:51.855Z,10.47
2023-04-01T16:23:26.486Z,9.23
2023-04-01T16:26:01.321Z,7.40
2023-04-01T16:28:35.291Z,8.27
2023-04-01T16:31:08.730Z,7.17
2023-04-01T16:33:48.713Z,9.10
2023-04-01T16:36:29.412Z,9.00
2023-04-01T16:39:13.689Z,8.77
2023-04-01T16:41:50.522Z,7.93
2023-04-01T16:44:22.491Z,5.90
2023-04-01T16:46:54.691Z,5.97
2023-04-01T16:49:30.808Z,7.60
2023-04-01T16:52:16.048Z,11.23
2023-04-01T16:54:50.636Z,7.87
2023-04-01T16:57:22.345Z,5.70
2023-04-01T16:59:59.675Z,5.67
2023-04-01T17:02:31.374Z,13.23
2023-04-01T17:05:04.951Z,7.53
2023-04-01T17:07:46.546Z,5.73
2023-04-01T17:10:29.186Z,7.83
2023-04-01T17:13:17.758Z,7.67
2023-04-01T17:15:53.598Z,5.90
2023-04-01T17:18:31.892Z,4.37
2023-04-01T17:21:06.899Z,12.33
2023-04-01T17:23:39.865Z,6.20
2023-04-01T17:26:23.493Z,5.10
2023-04-01T17:28:55.002Z,7.40
2023-04-01T17:31:44.932Z,4.77
2023-04-01T17:34:34.849Z,4.23
2023-04-01T17:37:21.209Z,4.33
2023-04-01T17:40:00.160Z,4.50
2023-04-01T17:42:38.888Z,6.03
2023-04-01T17:45:18.441Z,6.23
2023-04-01T17:47:54.648Z,5.77
2023-04-01T17:50:26.889Z,4.30
2023-04-01T17:53:06.217Z,5.83
2023-04-01T17:55:59.504Z,5.33
2023-04-01T17:58:35.816Z,5.83
2023-04-01T18:01:28.672Z,4.83
2023-04-01T18:04:18.762Z,3.97
2023-04-01T18:07:09.854Z,9.97
2023-04-01T18:09:49.677Z,8.60
2023-04-01T18:12:30.798Z,8.23
2023-04-01T18:15:18.816Z,5.03
2023-04-01T18:17:59.325Z,4.57
2023-04-01T18:20:36.432Z,6.83
2023-04-01T18:23:11.516Z,4.93
2023-04-01T18:25:42.908Z,7.73
2023-04-01T18:28:34.875Z,4.77
2023-04-01T18:31:11.261Z,4.77
2023-04-01T18:33:51.252Z,3.80
2023-04-01T18:36:26.902Z,4.57
2023-04-01T18:38:58.580Z,5.30
2023-04-01T18:41:35.700Z,4.67
2023-04-01T18:44:22.366Z,6.13
2023-04-01T18:46:55.103Z,6.77
2023-04-01T18:49:29.873Z,6.07
2023-04-01T18:52:01.392Z,7.67
2023-04-01T18:54:33.358Z,5.60
2023-04-01T18:57:06.079Z,9.87
2023-04-01T18:59:41.852Z,8.77
2023-04-01T19:02:21.900Z,5.73
2023-04-01T19:04:58.642Z,4.43
2023-04-01T19:07:43.796Z,6.67
2023-04-01T19:10:29.594Z,6.47
2023-04-01T19:13:07.601Z,7.73
2023-04-01T19:15:44.832Z,5.00
2023-04-01T19:18:40.501Z,3.70
2023-04-01T19:21:16.350Z,5.40
2023-04-01T19:24:10.954Z,3.10
2023-04-01T19:26:42.592Z,5.67
2023-04-01T19:29:29.001Z,4.93
2023-04-01T19:32:07.139Z,7.17
2023-04-01T19:34:49.099Z,5.57
2023-04-01T19:37:31.661Z,5.47
2023-04-01T19:40:19.195Z,5.33
2023-04-01T19:42:54.026Z,3.97
2023-04-01T19:45:32.226Z,6.73
2023-04-01T19:48:07.625Z,3.27
2023-04-01T19:50:41.598Z,3.77
2023-04-01T19:53:28.117Z,5.07
2023-04-01T19:56:06.403Z,4.37
2023-04-01T19:58:40.556Z,3.97
2023-04-01T20:01:13.366Z,4.87
2023-04-01T20:03:49.052Z,4.10
2023-04-01T20:06:25.379Z,4.63
2023-04-01T20:09:16.948Z,5.10
2023-04-01T20:11:57.070Z,3.10
2023-04-01T20:14:35.170Z,5.00
2023-04-01T20:17:16.208Z,6.13
2023-04-01T20:19:52.510Z,5.57
2023-04-01T20:22:30.958Z,4.63
2023-04-01T20:25:03.870Z,4.93
2023-04-01T20:27:35.297Z,6.13
2023-04-01T20:30:29.214Z,6.00
2023-04-01T20:33:10.184Z,5.20
2023-04-01T20:35:49.726Z,4.63
2023-04-01T20:38:37.462Z,5.77
2023-04-01T20:41:10.877Z,5.27
2023-04-01T20:43:54.967Z,5.60
2023-04-01T20:46:25.809Z,9.07
2023-04-01T20:49:13.521Z,9.67
2023-04-01T20:51:49.430Z,5.03
2023-04-01T20:54:32.842Z,5.47
2023-04-01T20:57:08.637Z,6.33
2023-04-01T20:59:55.511Z,7.33
2023-04-01T21:02:41.299Z,8.80
2023-04-01T21:05:30.986Z,6.60
2023-04-01T21:08:07.912Z,9.27
2023-04-01T21:10:43.388Z,5.90
2023-04-01T21:13:26.522Z,8.20
2023-04-01T21:16:10.524Z,6.73
2023-04-01T21:19:06.310Z,7.93
2023-04-01T21:22:13.585Z,6.13
2023-04-01T21:25:18.799Z,4.77
2023-04-01T21:28:02.858Z,4.87
2023-04-01T21:30:49.102Z,3.53
2023-04-01T21:33:32.568Z,7.13
2023-04-01T21:36:11.768Z,5.63
2023-04-01T21:39:02.308Z,6.20
2023-04-01T21:41:57.594Z,6.80
2023-04-01T21:44:51.137Z,5.50
2023-04-01T21:48:02.316Z,6.17
2023-04-01T21:51:03.857Z,5.13
2023-04-01T21:54:18.884Z,5.63
2023-04-01T21:57:14.340Z,4.87
2023-04-01T22:00:14.201Z,4.90
2023-04-01T22:03:26.865Z,6.13
2023-04-01T22:06:02.867Z,6.43
2023-04-01T22:08:47.021Z,4.73
2023-04-01T22:11:25.347Z,5.50
2023-04-01T22:13:58.052Z,4.80
2023-04-01T22:16:35.358Z,5.93
2023-04-01T22:19:14.285Z,3.30
2023-04-01T22:21:53.019Z,3.63
2023-04-01T22:24:30.053Z,5.27
2023-04-01T22:27:06.188Z,3.67
2023-04-01T22:29:43.349Z,3.70
2023-04-01T22:32:18.576Z,3.90
2023-04-01T22:34:52.011Z,4.63
2023-04-01T22:37:26.250Z,5.50
2023-04-01T22:40:12.624Z,4.03
2023-04-01T22:42:46.435Z,4.43
2023-04-01T22:45:35.582Z,4.10
2023-04-01T22:48:11.689Z,4.67
2023-04-01T22:50:43.118Z,4.77
2023-04-01T22:53:23.562Z,5.27
2023-04-01T22:55:54.127Z,5.37
2023-04-01T22:58:29.253Z,3.83
2023-04-01T23:01:01.695Z,5.90
2023-04-01T23:03:32.895Z,4.60
2023-04-01T23:06:02.823Z,5.80
2023-04-01T23:08:54.921Z,9.17
2023-04-01T23:11:27.029Z,3.87
2023-04-01T23:13:59.830Z,6.00
2023-04-01T23:16:36.783Z,3.63
2023-04-01T23:19:15.806Z,5.57
2023-04-01T23:21:51.885Z,6.63
2023-04-01T23:24:23.883Z,7.33
2023-04-01T23:26:57.557Z,5.27
2023-04-01T23:29:26.839Z,5.40
2023-04-01T23:32:01.403Z,5.30
2023-04-01T23:34:33.459Z,5.93
2023-04-01T23:37:06.265Z,7.40
2023-04-01T23:39:37.840Z,6.03
2023-04-01T23:42:08.861Z,5.47
2023-04-01T23:44:38.466Z,8.53
2023-04-01T23:47:10.065Z,7.53
2023-04-01T23:49:40.908Z,6.90
2023-04-01T23:52:15.638Z,5.83
2023-04-01T23:54:49.138Z,5.23
2023-04-01T23:57:22.901Z,6.87
